sensor_id;sensor_type;location;lat;lon;timestamp;P1;durP1;ratioP1;P2;durP2;ratioP2
47053;SDS011;32811;52.382;5.270;2024-02-28T00:01:20;16.48;;;11.40;;
47053;SDS011;32811;52.382;5.270;2024-02-28T00:03:46;15.80;;;11.80;;
47053;SDS011;32811;52.382;5.270;2024-02-28T00:06:15;19.63;;;12.77;;
47053;SDS011;32811;52.382;5.270;2024-02-28T00:08:43;15.57;;;10.98;;
47053;SDS011;32811;52.382;5.270;2024-02-28T00:11:10;16.17;;;10.55;;
47053;SDS011;32811;52.382;5.270;2024-02-28T00:13:37;19.58;;;11.85;;
47053;SDS011;32811;52.382;5.270;2024-02-28T00:16:03;16.90;;;10.13;;
47053;SDS011;32811;52.382;5.270;2024-02-28T00:18:30;17.85;;;12.32;;
47053;SDS011;32811;52.382;5.270;2024-02-28T00:20:57;17.17;;;11.85;;
47053;SDS011;32811;52.382;5.270;2024-02-28T00:23:25;20.90;;;12.45;;
47053;SDS011;32811;52.382;5.270;2024-02-28T00:25:52;18.65;;;11.95;;
47053;SDS011;32811;52.382;5.270;2024-02-28T00:28:18;17.55;;;11.68;;
47053;SDS011;32811;52.382;5.270;2024-02-28T00:30:45;20.20;;;12.50;;
47053;SDS011;32811;52.382;5.270;2024-02-28T00:33:12;18.40;;;12.35;;
47053;SDS011;32811;52.382;5.270;2024-02-28T00:35:39;19.67;;;12.20;;
47053;SDS011;32811;52.382;5.270;2024-02-28T00:38:08;19.42;;;12.50;;
47053;SDS011;32811;52.382;5.270;2024-02-28T00:40:35;18.92;;;12.75;;
47053;SDS011;32811;52.382;5.270;2024-02-28T00:43:01;21.00;;;12.63;;
47053;SDS011;32811;52.382;5.270;2024-02-28T00:45:28;15.38;;;10.98;;
47053;SDS011;32811;52.382;5.270;2024-02-28T00:47:55;22.35;;;13.88;;
47053;SDS011;32811;52.382;5.270;2024-02-28T00:50:21;18.88;;;12.20;;
47053;SDS011;32811;52.382;5.270;2024-02-28T00:52:48;18.42;;;11.82;;
47053;SDS011;32811;52.382;5.270;2024-02-28T00:55:15;18.60;;;12.77;;
47053;SDS011;32811;52.382;5.270;2024-02-28T00:57:41;17.23;;;12.35;;
47053;SDS011;32811;52.382;5.270;2024-02-28T01:00:11;21.42;;;13.27;;
47053;SDS011;32811;52.382;5.270;2024-02-28T01:02:39;19.27;;;13.10;;
47053;SDS011;32811;52.382;5.270;2024-02-28T01:05:08;18.42;;;12.02;;
47053;SDS011;32811;52.382;5.270;2024-02-28T01:07:35;18.98;;;12.57;;
47053;SDS011;32811;52.382;5.270;2024-02-28T01:10:02;23.17;;;13.55;;
47053;SDS011;32811;52.382;5.270;2024-02-28T01:12:29;19.98;;;12.55;;
47053;SDS011;32811;52.382;5.270;2024-02-28T01:14:56;20.58;;;13.05;;
47053;SDS011;32811;52.382;5.270;2024-02-28T01:17:23;20.30;;;13.18;;
47053;SDS011;32811;52.382;5.270;2024-02-28T01:19:50;21.55;;;12.27;;
47053;SDS011;32811;52.382;5.270;2024-02-28T01:22:16;20.67;;;12.45;;
47053;SDS011;32811;52.382;5.270;2024-02-28T01:24:43;19.52;;;12.23;;
47053;SDS011;32811;52.382;5.270;2024-02-28T01:27:10;23.42;;;14.48;;
47053;SDS011;32811;52.382;5.270;2024-02-28T01:29:36;22.08;;;12.73;;
47053;SDS011;32811;52.382;5.270;2024-02-28T01:32:03;19.55;;;12.80;;
47053;SDS011;32811;52.382;5.270;2024-02-28T01:34:30;24.40;;;13.95;;
47053;SDS011;32811;52.382;5.270;2024-02-28T01:36:56;24.05;;;13.88;;
47053;SDS011;32811;52.382;5.270;2024-02-28T01:39:23;23.58;;;13.68;;
47053;SDS011;32811;52.382;5.270;2024-02-28T01:41:53;20.90;;;12.32;;
47053;SDS011;32811;52.382;5.270;2024-02-28T01:44:20;17.88;;;11.77;;
47053;SDS011;32811;52.382;5.270;2024-02-28T01:46:47;23.27;;;13.98;;
47053;SDS011;32811;52.382;5.270;2024-02-28T01:49:14;26.20;;;12.98;;
47053;SDS011;32811;52.382;5.270;2024-02-28T01:51:42;20.75;;;12.48;;
47053;SDS011;32811;52.382;5.270;2024-02-28T01:54:11;22.55;;;13.38;;
47053;SDS011;32811;52.382;5.270;2024-02-28T01:56:38;17.85;;;11.70;;
47053;SDS011;32811;52.382;5.270;2024-02-28T01:59:05;19.30;;;11.50;;
47053;SDS011;32811;52.382;5.270;2024-02-28T02:01:32;21.17;;;13.25;;
47053;SDS011;32811;52.382;5.270;2024-02-28T02:03:59;21.35;;;13.55;;
47053;SDS011;32811;52.382;5.270;2024-02-28T02:06:26;20.95;;;13.80;;
47053;SDS011;32811;52.382;5.270;2024-02-28T02:08:52;22.20;;;13.43;;
47053;SDS011;32811;52.382;5.270;2024-02-28T02:11:20;18.38;;;11.98;;
47053;SDS011;32811;52.382;5.270;2024-02-28T02:13:48;23.88;;;14.10;;
47053;SDS011;32811;52.382;5.270;2024-02-28T02:16:16;18.98;;;12.50;;
47053;SDS011;32811;52.382;5.270;2024-02-28T02:18:43;23.38;;;13.70;;
47053;SDS011;32811;52.382;5.270;2024-02-28T02:21:11;23.48;;;13.27;;
47053;SDS011;32811;52.382;5.270;2024-02-28T02:23:39;21.17;;;12.85;;
47053;SDS011;32811;52.382;5.270;2024-02-28T02:26:07;23.90;;;13.50;;
47053;SDS011;32811;52.382;5.270;2024-02-28T02:28:34;27.55;;;15.48;;
47053;SDS011;32811;52.382;5.270;2024-02-28T02:31:01;25.55;;;14.98;;
47053;SDS011;32811;52.382;5.270;2024-02-28T02:33:27;24.45;;;13.80;;
47053;SDS011;32811;52.382;5.270;2024-02-28T02:35:54;21.33;;;14.65;;
47053;SDS011;32811;52.382;5.270;2024-02-28T02:38:21;22.35;;;14.38;;
47053;SDS011;32811;52.382;5.270;2024-02-28T02:40:48;24.15;;;14.63;;
47053;SDS011;32811;52.382;5.270;2024-02-28T02:43:16;27.52;;;15.20;;
47053;SDS011;32811;52.382;5.270;2024-02-28T02:45:42;21.42;;;13.90;;
47053;SDS011;32811;52.382;5.270;2024-02-28T02:48:10;21.30;;;12.88;;
47053;SDS011;32811;52.382;5.270;2024-02-28T02:50:37;20.75;;;12.15;;
47053;SDS011;32811;52.382;5.270;2024-02-28T02:53:03;24.90;;;13.18;;
47053;SDS011;32811;52.382;5.270;2024-02-28T02:55:30;22.92;;;13.32;;
47053;SDS011;32811;52.382;5.270;2024-02-28T02:57:57;21.95;;;12.98;;
47053;SDS011;32811;52.382;5.270;2024-02-28T03:00:26;21.90;;;13.88;;
47053;SDS011;32811;52.382;5.270;2024-02-28T03:02:53;23.27;;;14.02;;
47053;SDS011;32811;52.382;5.270;2024-02-28T03:05:20;26.77;;;13.70;;
47053;SDS011;32811;52.382;5.270;2024-02-28T03:07:46;19.98;;;12.88;;
47053;SDS011;32811;52.382;5.270;2024-02-28T03:10:13;18.58;;;13.10;;
47053;SDS011;32811;52.382;5.270;2024-02-28T03:12:40;23.40;;;13.10;;
47053;SDS011;32811;52.382;5.270;2024-02-28T03:15:07;22.08;;;12.48;;
47053;SDS011;32811;52.382;5.270;2024-02-28T03:17:34;19.20;;;12.57;;
47053;SDS011;32811;52.382;5.270;2024-02-28T03:20:01;18.73;;;13.18;;
47053;SDS011;32811;52.382;5.270;2024-02-28T03:22:27;21.75;;;12.18;;
47053;SDS011;32811;52.382;5.270;2024-02-28T03:24:54;20.08;;;12.73;;
47053;SDS011;32811;52.382;5.270;2024-02-28T03:27:20;20.90;;;12.48;;
47053;SDS011;32811;52.382;5.270;2024-02-28T03:29:47;18.50;;;12.05;;
47053;SDS011;32811;52.382;5.270;2024-02-28T03:32:13;21.52;;;12.85;;
47053;SDS011;32811;52.382;5.270;2024-02-28T03:34:40;18.35;;;11.98;;
47053;SDS011;32811;52.382;5.270;2024-02-28T03:37:07;18.42;;;12.35;;
47053;SDS011;32811;52.382;5.270;2024-02-28T03:39:34;16.83;;;12.10;;
47053;SDS011;32811;52.382;5.270;2024-02-28T03:42:00;17.17;;;11.38;;
47053;SDS011;32811;52.382;5.270;2024-02-28T03:44:27;16.65;;;10.13;;
47053;SDS011;32811;52.382;5.270;2024-02-28T03:46:53;18.17;;;10.80;;
47053;SDS011;32811;52.382;5.270;2024-02-28T03:49:20;15.68;;;9.90;;
47053;SDS011;32811;52.382;5.270;2024-02-28T03:51:47;17.67;;;9.75;;
47053;SDS011;32811;52.382;5.270;2024-02-28T03:54:13;12.02;;;8.43;;
47053;SDS011;32811;52.382;5.270;2024-02-28T03:56:40;10.57;;;8.20;;
47053;SDS011;32811;52.382;5.270;2024-02-28T03:59:07;10.63;;;7.82;;
47053;SDS011;32811;52.382;5.270;2024-02-28T04:01:33;15.23;;;8.80;;
47053;SDS011;32811;52.382;5.270;2024-02-28T04:04:00;11.13;;;8.15;;
47053;SDS011;32811;52.382;5.270;2024-02-28T04:06:27;8.98;;;7.85;;
47053;SDS011;32811;52.382;5.270;2024-02-28T04:08:53;13.48;;;9.90;;
47053;SDS011;32811;52.382;5.270;2024-02-28T04:11:20;13.38;;;8.45;;
47053;SDS011;32811;52.382;5.270;2024-02-28T04:13:47;9.93;;;7.80;;
47053;SDS011;32811;52.382;5.270;2024-02-28T04:16:13;9.05;;;7.82;;
47053;SDS011;32811;52.382;5.270;2024-02-28T04:18:40;10.30;;;7.68;;
47053;SDS011;32811;52.382;5.270;2024-02-28T04:21:06;12.77;;;7.50;;
47053;SDS011;32811;52.382;5.270;2024-02-28T04:23:33;13.15;;;8.18;;
47053;SDS011;32811;52.382;5.270;2024-02-28T04:26:00;12.05;;;7.30;;
47053;SDS011;32811;52.382;5.270;2024-02-28T04:28:27;13.43;;;8.95;;
47053;SDS011;32811;52.382;5.270;2024-02-28T04:30:54;11.38;;;8.52;;
47053;SDS011;32811;52.382;5.270;2024-02-28T04:33:21;12.23;;;7.65;;
47053;SDS011;32811;52.382;5.270;2024-02-28T04:35:49;11.60;;;8.63;;
47053;SDS011;32811;52.382;5.270;2024-02-28T04:38:15;11.02;;;7.88;;
47053;SDS011;32811;52.382;5.270;2024-02-28T04:40:42;8.48;;;6.90;;
47053;SDS011;32811;52.382;5.270;2024-02-28T04:43:11;8.23;;;7.43;;
47053;SDS011;32811;52.382;5.270;2024-02-28T04:45:38;16.08;;;8.63;;
47053;SDS011;32811;52.382;5.270;2024-02-28T04:48:08;14.55;;;10.05;;
47053;SDS011;32811;52.382;5.270;2024-02-28T04:50:34;14.65;;;7.78;;
47053;SDS011;32811;52.382;5.270;2024-02-28T04:53:01;11.13;;;8.60;;
47053;SDS011;32811;52.382;5.270;2024-02-28T04:55:28;10.73;;;8.25;;
47053;SDS011;32811;52.382;5.270;2024-02-28T04:57:54;11.30;;;8.00;;
47053;SDS011;32811;52.382;5.270;2024-02-28T05:00:21;11.85;;;7.75;;
47053;SDS011;32811;52.382;5.270;2024-02-28T05:02:50;12.63;;;9.82;;
47053;SDS011;32811;52.382;5.270;2024-02-28T05:05:17;11.55;;;8.90;;
47053;SDS011;32811;52.382;5.270;2024-02-28T05:07:43;15.07;;;8.40;;
47053;SDS011;32811;52.382;5.270;2024-02-28T05:10:10;13.52;;;9.10;;
47053;SDS011;32811;52.382;5.270;2024-02-28T05:12:36;11.75;;;8.90;;
47053;SDS011;32811;52.382;5.270;2024-02-28T05:15:03;12.65;;;9.30;;
47053;SDS011;32811;52.382;5.270;2024-02-28T05:17:32;13.98;;;9.13;;
47053;SDS011;32811;52.382;5.270;2024-02-28T05:19:59;16.67;;;9.50;;
47053;SDS011;32811;52.382;5.270;2024-02-28T05:22:25;10.48;;;9.13;;
47053;SDS011;32811;52.382;5.270;2024-02-28T05:24:52;11.73;;;9.15;;
47053;SDS011;32811;52.382;5.270;2024-02-28T05:27:20;13.48;;;9.27;;
47053;SDS011;32811;52.382;5.270;2024-02-28T05:29:47;14.55;;;9.80;;
47053;SDS011;32811;52.382;5.270;2024-02-28T05:32:14;11.93;;;9.38;;
47053;SDS011;32811;52.382;5.270;2024-02-28T05:34:41;12.10;;;8.77;;
47053;SDS011;32811;52.382;5.270;2024-02-28T05:37:07;16.10;;;10.18;;
47053;SDS011;32811;52.382;5.270;2024-02-28T05:39:34;12.80;;;9.82;;
47053;SDS011;32811;52.382;5.270;2024-02-28T05:42:01;14.75;;;9.05;;
47053;SDS011;32811;52.382;5.270;2024-02-28T05:44:27;13.93;;;9.20;;
47053;SDS011;32811;52.382;5.270;2024-02-28T05:46:54;14.50;;;10.68;;
47053;SDS011;32811;52.382;5.270;2024-02-28T05:49:21;20.33;;;10.07;;
47053;SDS011;32811;52.382;5.270;2024-02-28T05:51:49;12.73;;;9.35;;
47053;SDS011;32811;52.382;5.270;2024-02-28T05:54:15;16.38;;;9.80;;
47053;SDS011;32811;52.382;5.270;2024-02-28T05:56:42;11.82;;;9.00;;
47053;SDS011;32811;52.382;5.270;2024-02-28T05:59:08;19.35;;;10.18;;
47053;SDS011;32811;52.382;5.270;2024-02-28T06:01:35;11.55;;;9.13;;
47053;SDS011;32811;52.382;5.270;2024-02-28T06:04:02;14.25;;;9.55;;
47053;SDS011;32811;52.382;5.270;2024-02-28T06:06:29;14.35;;;11.25;;
47053;SDS011;32811;52.382;5.270;2024-02-28T06:08:57;12.13;;;9.60;;
47053;SDS011;32811;52.382;5.270;2024-02-28T06:11:24;13.18;;;9.75;;
47053;SDS011;32811;52.382;5.270;2024-02-28T06:13:51;13.05;;;9.75;;
47053;SDS011;32811;52.382;5.270;2024-02-28T06:16:18;13.70;;;10.23;;
47053;SDS011;32811;52.382;5.270;2024-02-28T06:18:45;10.98;;;9.88;;
47053;SDS011;32811;52.382;5.270;2024-02-28T06:21:12;16.83;;;10.65;;
47053;SDS011;32811;52.382;5.270;2024-02-28T06:23:40;15.43;;;11.18;;
47053;SDS011;32811;52.382;5.270;2024-02-28T06:26:08;14.23;;;11.00;;
47053;SDS011;32811;52.382;5.270;2024-02-28T06:28:45;18.95;;;11.43;;
47053;SDS011;32811;52.382;5.270;2024-02-28T06:31:13;17.58;;;11.13;;
47053;SDS011;32811;52.382;5.270;2024-02-28T06:33:42;18.63;;;10.95;;
47053;SDS011;32811;52.382;5.270;2024-02-28T06:36:09;19.73;;;10.85;;
47053;SDS011;32811;52.382;5.270;2024-02-28T06:38:36;17.98;;;10.75;;
47053;SDS011;32811;52.382;5.270;2024-02-28T06:41:05;19.13;;;10.80;;
47053;SDS011;32811;52.382;5.270;2024-02-28T06:43:33;17.55;;;11.52;;
47053;SDS011;32811;52.382;5.270;2024-02-28T06:46:00;16.15;;;10.52;;
47053;SDS011;32811;52.382;5.270;2024-02-28T06:48:28;20.05;;;10.48;;
47053;SDS011;32811;52.382;5.270;2024-02-28T06:50:55;21.30;;;11.57;;
47053;SDS011;32811;52.382;5.270;2024-02-28T06:53:23;17.00;;;12.05;;
47053;SDS011;32811;52.382;5.270;2024-02-28T06:55:50;14.32;;;11.13;;
47053;SDS011;32811;52.382;5.270;2024-02-28T06:58:17;21.50;;;11.57;;
47053;SDS011;32811;52.382;5.270;2024-02-28T07:00:43;18.20;;;11.88;;
47053;SDS011;32811;52.382;5.270;2024-02-28T07:03:10;19.30;;;11.43;;
47053;SDS011;32811;52.382;5.270;2024-02-28T07:05:37;22.38;;;11.93;;
47053;SDS011;32811;52.382;5.270;2024-02-28T07:08:03;20.83;;;12.63;;
47053;SDS011;32811;52.382;5.270;2024-02-28T07:10:30;25.63;;;11.45;;
47053;SDS011;32811;52.382;5.270;2024-02-28T07:12:57;19.48;;;12.05;;
47053;SDS011;32811;52.382;5.270;2024-02-28T07:15:24;16.92;;;11.13;;
47053;SDS011;32811;52.382;5.270;2024-02-28T07:17:50;19.77;;;10.93;;
47053;SDS011;32811;52.382;5.270;2024-02-28T07:20:17;17.23;;;12.27;;
47053;SDS011;32811;52.382;5.270;2024-02-28T07:22:46;13.65;;;10.18;;
47053;SDS011;32811;52.382;5.270;2024-02-28T07:25:15;18.92;;;10.80;;
47053;SDS011;32811;52.382;5.270;2024-02-28T07:27:43;15.68;;;11.00;;
47053;SDS011;32811;52.382;5.270;2024-02-28T07:30:10;22.20;;;10.93;;
47053;SDS011;32811;52.382;5.270;2024-02-28T07:32:37;17.35;;;12.30;;
47053;SDS011;32811;52.382;5.270;2024-02-28T07:35:05;20.52;;;12.55;;
47053;SDS011;32811;52.382;5.270;2024-02-28T07:37:32;16.58;;;11.75;;
47053;SDS011;32811;52.382;5.270;2024-02-28T07:39:58;18.50;;;12.68;;
47053;SDS011;32811;52.382;5.270;2024-02-28T07:42:26;24.75;;;12.85;;
47053;SDS011;32811;52.382;5.270;2024-02-28T07:44:52;24.85;;;12.77;;
47053;SDS011;32811;52.382;5.270;2024-02-28T07:47:23;21.95;;;12.70;;
47053;SDS011;32811;52.382;5.270;2024-02-28T07:49:50;17.83;;;11.93;;
47053;SDS011;32811;52.382;5.270;2024-02-28T07:52:20;20.52;;;11.15;;
47053;SDS011;32811;52.382;5.270;2024-02-28T07:54:47;16.15;;;12.10;;
47053;SDS011;32811;52.382;5.270;2024-02-28T07:57:14;18.42;;;11.85;;
47053;SDS011;32811;52.382;5.270;2024-02-28T07:59:41;14.73;;;12.15;;
47053;SDS011;32811;52.382;5.270;2024-02-28T08:02:09;20.17;;;12.55;;
47053;SDS011;32811;52.382;5.270;2024-02-28T08:04:39;23.80;;;11.65;;
47053;SDS011;32811;52.382;5.270;2024-02-28T08:07:05;22.20;;;12.05;;
47053;SDS011;32811;52.382;5.270;2024-02-28T08:09:32;21.58;;;12.57;;
47053;SDS011;32811;52.382;5.270;2024-02-28T08:11:59;20.92;;;12.88;;
47053;SDS011;32811;52.382;5.270;2024-02-28T08:14:26;17.35;;;12.15;;
47053;SDS011;32811;52.382;5.270;2024-02-28T08:16:53;27.10;;;13.23;;
47053;SDS011;32811;52.382;5.270;2024-02-28T08:19:20;20.27;;;12.55;;
47053;SDS011;32811;52.382;5.270;2024-02-28T08:21:47;20.52;;;13.45;;
47053;SDS011;32811;52.382;5.270;2024-02-28T08:24:13;17.17;;;12.30;;
47053;SDS011;32811;52.382;5.270;2024-02-28T08:26:40;18.95;;;12.35;;
47053;SDS011;32811;52.382;5.270;2024-02-28T08:29:08;22.75;;;12.45;;
47053;SDS011;32811;52.382;5.270;2024-02-28T08:31:39;14.80;;;11.77;;
47053;SDS011;32811;52.382;5.270;2024-02-28T08:34:07;23.75;;;12.65;;
47053;SDS011;32811;52.382;5.270;2024-02-28T08:36:33;21.48;;;12.95;;
47053;SDS011;32811;52.382;5.270;2024-02-28T08:39:00;18.20;;;13.40;;
47053;SDS011;32811;52.382;5.270;2024-02-28T08:41:27;16.45;;;12.32;;
47053;SDS011;32811;52.382;5.270;2024-02-28T08:43:53;16.52;;;12.98;;
47053;SDS011;32811;52.382;5.270;2024-02-28T08:46:20;17.88;;;14.00;;
47053;SDS011;32811;52.382;5.270;2024-02-28T08:48:46;22.38;;;13.23;;
47053;SDS011;32811;52.382;5.270;2024-02-28T08:51:13;20.77;;;13.65;;
47053;SDS011;32811;52.382;5.270;2024-02-28T08:53:39;19.73;;;12.75;;
47053;SDS011;32811;52.382;5.270;2024-02-28T08:56:06;28.83;;;16.15;;
47053;SDS011;32811;52.382;5.270;2024-02-28T08:58:33;18.10;;;14.07;;
47053;SDS011;32811;52.382;5.270;2024-02-28T09:00:59;19.20;;;13.38;;
47053;SDS011;32811;52.382;5.270;2024-02-28T09:03:26;20.52;;;13.40;;
47053;SDS011;32811;52.382;5.270;2024-02-28T09:05:53;17.70;;;12.93;;
47053;SDS011;32811;52.382;5.270;2024-02-28T09:08:20;19.70;;;13.75;;
47053;SDS011;32811;52.382;5.270;2024-02-28T09:10:46;34.47;;;13.30;;
47053;SDS011;32811;52.382;5.270;2024-02-28T09:13:13;17.27;;;13.57;;
47053;SDS011;32811;52.382;5.270;2024-02-28T09:15:40;19.17;;;13.13;;
47053;SDS011;32811;52.382;5.270;2024-02-28T09:18:07;14.05;;;12.60;;
47053;SDS011;32811;52.382;5.270;2024-02-28T09:20:35;19.63;;;12.63;;
47053;SDS011;32811;52.382;5.270;2024-02-28T09:23:02;23.67;;;13.98;;
47053;SDS011;32811;52.382;5.270;2024-02-28T09:25:28;20.25;;;12.57;;
47053;SDS011;32811;52.382;5.270;2024-02-28T09:27:56;20.27;;;14.30;;
47053;SDS011;32811;52.382;5.270;2024-02-28T09:30:23;22.02;;;12.55;;
47053;SDS011;32811;52.382;5.270;2024-02-28T09:32:55;19.23;;;12.82;;
47053;SDS011;32811;52.382;5.270;2024-02-28T09:35:22;17.00;;;12.40;;
47053;SDS011;32811;52.382;5.270;2024-02-28T09:37:48;20.55;;;12.23;;
47053;SDS011;32811;52.382;5.270;2024-02-28T09:40:15;19.20;;;13.20;;
47053;SDS011;32811;52.382;5.270;2024-02-28T09:42:45;20.90;;;12.32;;
47053;SDS011;32811;52.382;5.270;2024-02-28T09:45:18;19.52;;;12.85;;
47053;SDS011;32811;52.382;5.270;2024-02-28T09:47:49;14.88;;;11.52;;
47053;SDS011;32811;52.382;5.270;2024-02-28T09:50:16;15.32;;;13.48;;
47053;SDS011;32811;52.382;5.270;2024-02-28T09:52:45;18.83;;;11.15;;
47053;SDS011;32811;52.382;5.270;2024-02-28T09:55:23;13.07;;;11.38;;
47053;SDS011;32811;52.382;5.270;2024-02-28T09:57:50;15.90;;;11.70;;
47053;SDS011;32811;52.382;5.270;2024-02-28T10:00:21;15.20;;;11.40;;
47053;SDS011;32811;52.382;5.270;2024-02-28T10:02:49;18.25;;;11.88;;
47053;SDS011;32811;52.382;5.270;2024-02-28T10:05:17;20.63;;;11.88;;
47053;SDS011;32811;52.382;5.270;2024-02-28T10:07:45;17.50;;;10.57;;
47053;SDS011;32811;52.382;5.270;2024-02-28T10:10:12;15.60;;;11.60;;
47053;SDS011;32811;52.382;5.270;2024-02-28T10:12:42;13.38;;;10.68;;
47053;SDS011;32811;52.382;5.270;2024-02-28T10:15:09;15.48;;;11.57;;
47053;SDS011;32811;52.382;5.270;2024-02-28T10:17:37;17.42;;;11.75;;
47053;SDS011;32811;52.382;5.270;2024-02-28T10:20:04;16.65;;;11.10;;
47053;SDS011;32811;52.382;5.270;2024-02-28T10:22:37;21.45;;;11.15;;
47053;SDS011;32811;52.382;5.270;2024-02-28T10:25:04;13.70;;;10.65;;
47053;SDS011;32811;52.382;5.270;2024-02-28T10:27:34;14.77;;;11.15;;
47053;SDS011;32811;52.382;5.270;2024-02-28T10:30:02;14.98;;;9.98;;
47053;SDS011;32811;52.382;5.270;2024-02-28T10:32:32;14.73;;;10.75;;
47053;SDS011;32811;52.382;5.270;2024-02-28T10:35:03;13.30;;;9.73;;
47053;SDS011;32811;52.382;5.270;2024-02-28T10:37:37;22.30;;;10.32;;
47053;SDS011;32811;52.382;5.270;2024-02-28T10:40:05;15.55;;;7.80;;
47053;SDS011;32811;52.382;5.270;2024-02-28T10:42:33;11.85;;;8.25;;
47053;SDS011;32811;52.382;5.270;2024-02-28T10:45:00;8.10;;;7.18;;
47053;SDS011;32811;52.382;5.270;2024-02-28T10:47:43;12.48;;;7.47;;
47053;SDS011;32811;52.382;5.270;2024-02-28T10:50:12;9.32;;;6.75;;
47053;SDS011;32811;52.382;5.270;2024-02-28T10:52:39;9.05;;;6.90;;
47053;SDS011;32811;52.382;5.270;2024-02-28T10:55:10;11.15;;;6.65;;
47053;SDS011;32811;52.382;5.270;2024-02-28T10:57:37;9.10;;;6.85;;
47053;SDS011;32811;52.382;5.270;2024-02-28T11:00:05;10.25;;;7.25;;
47053;SDS011;32811;52.382;5.270;2024-02-28T11:02:33;7.25;;;6.55;;
47053;SDS011;32811;52.382;5.270;2024-02-28T11:05:00;9.55;;;5.82;;
47053;SDS011;32811;52.382;5.270;2024-02-28T11:07:30;9.95;;;5.72;;
47053;SDS011;32811;52.382;5.270;2024-02-28T11:09:56;7.10;;;5.78;;
47053;SDS011;32811;52.382;5.270;2024-02-28T11:12:24;15.77;;;7.00;;
47053;SDS011;32811;52.382;5.270;2024-02-28T11:14:58;8.50;;;6.05;;
47053;SDS011;32811;52.382;5.270;2024-02-28T11:17:26;10.20;;;6.90;;
47053;SDS011;32811;52.382;5.270;2024-02-28T11:19:58;10.50;;;6.85;;
47053;SDS011;32811;52.382;5.270;2024-02-28T11:22:28;12.27;;;6.65;;
47053;SDS011;32811;52.382;5.270;2024-02-28T11:24:55;7.88;;;7.07;;
47053;SDS011;32811;52.382;5.270;2024-02-28T11:27:22;10.15;;;7.18;;
47053;SDS011;32811;52.382;5.270;2024-02-28T11:29:49;6.78;;;6.18;;
47053;SDS011;32811;52.382;5.270;2024-02-28T11:32:16;9.93;;;6.97;;
47053;SDS011;32811;52.382;5.270;2024-02-28T11:34:42;9.13;;;7.10;;
47053;SDS011;32811;52.382;5.270;2024-02-28T11:37:10;12.52;;;7.03;;
47053;SDS011;32811;52.382;5.270;2024-02-28T11:39:37;14.02;;;8.20;;
47053;SDS011;32811;52.382;5.270;2024-02-28T11:42:18;8.98;;;6.85;;
47053;SDS011;32811;52.382;5.270;2024-02-28T11:44:52;7.03;;;5.53;;
47053;SDS011;32811;52.382;5.270;2024-02-28T11:47:26;7.05;;;5.50;;
47053;SDS011;32811;52.382;5.270;2024-02-28T11:49:59;5.20;;;4.70;;
47053;SDS011;32811;52.382;5.270;2024-02-28T11:52:30;6.88;;;5.75;;
47053;SDS011;32811;52.382;5.270;2024-02-28T11:54:57;8.40;;;5.75;;
47053;SDS011;32811;52.382;5.270;2024-02-28T11:57:24;11.35;;;6.82;;
47053;SDS011;32811;52.382;5.270;2024-02-28T11:59:56;7.63;;;5.32;;
47053;SDS011;32811;52.382;5.270;2024-02-28T12:02:23;8.40;;;6.22;;
47053;SDS011;32811;52.382;5.270;2024-02-28T12:05:00;7.00;;;6.20;;
47053;SDS011;32811;52.382;5.270;2024-02-28T12:07:31;9.85;;;7.20;;
47053;SDS011;32811;52.382;5.270;2024-02-28T12:09:58;8.50;;;7.35;;
47053;SDS011;32811;52.382;5.270;2024-02-28T12:12:28;8.93;;;6.85;;
47053;SDS011;32811;52.382;5.270;2024-02-28T12:14:58;9.18;;;6.57;;
47053;SDS011;32811;52.382;5.270;2024-02-28T12:17:26;8.77;;;6.88;;
47053;SDS011;32811;52.382;5.270;2024-02-28T12:19:53;9.63;;;7.55;;
47053;SDS011;32811;52.382;5.270;2024-02-28T12:22:21;8.82;;;7.72;;
47053;SDS011;32811;52.382;5.270;2024-02-28T12:24:48;9.82;;;8.68;;
47053;SDS011;32811;52.382;5.270;2024-02-28T12:27:15;11.05;;;8.40;;
47053;SDS011;32811;52.382;5.270;2024-02-28T12:29:41;9.80;;;7.95;;
47053;SDS011;32811;52.382;5.270;2024-02-28T12:32:08;13.02;;;8.85;;
47053;SDS011;32811;52.382;5.270;2024-02-28T12:34:35;8.70;;;7.88;;
47053;SDS011;32811;52.382;5.270;2024-02-28T12:37:02;11.57;;;8.57;;
47053;SDS011;32811;52.382;5.270;2024-02-28T12:39:30;9.82;;;8.35;;
47053;SDS011;32811;52.382;5.270;2024-02-28T12:42:00;14.45;;;9.75;;
47053;SDS011;32811;52.382;5.270;2024-02-28T12:44:27;12.73;;;8.75;;
47053;SDS011;32811;52.382;5.270;2024-02-28T12:46:54;9.05;;;7.78;;
47053;SDS011;32811;52.382;5.270;2024-02-28T12:49:20;13.85;;;7.35;;
47053;SDS011;32811;52.382;5.270;2024-02-28T12:51:47;9.45;;;7.03;;
47053;SDS011;32811;52.382;5.270;2024-02-28T12:54:15;9.93;;;7.68;;
47053;SDS011;32811;52.382;5.270;2024-02-28T12:56:42;9.30;;;7.90;;
47053;SDS011;32811;52.382;5.270;2024-02-28T12:59:12;11.00;;;8.13;;
47053;SDS011;32811;52.382;5.270;2024-02-28T13:01:39;11.00;;;8.48;;
47053;SDS011;32811;52.382;5.270;2024-02-28T13:04:06;14.02;;;10.05;;
47053;SDS011;32811;52.382;5.270;2024-02-28T13:06:33;13.18;;;9.25;;
47053;SDS011;32811;52.382;5.270;2024-02-28T13:09:00;13.43;;;9.07;;
47053;SDS011;32811;52.382;5.270;2024-02-28T13:11:26;11.13;;;9.23;;
47053;SDS011;32811;52.382;5.270;2024-02-28T13:13:53;13.00;;;8.43;;
47053;SDS011;32811;52.382;5.270;2024-02-28T13:16:20;11.02;;;9.10;;
47053;SDS011;32811;52.382;5.270;2024-02-28T13:18:48;10.90;;;8.60;;
47053;SDS011;32811;52.382;5.270;2024-02-28T13:21:14;18.70;;;12.27;;
47053;SDS011;32811;52.382;5.270;2024-02-28T13:23:41;10.15;;;8.85;;
47053;SDS011;32811;52.382;5.270;2024-02-28T13:26:08;14.23;;;11.13;;
47053;SDS011;32811;52.382;5.270;2024-02-28T13:28:34;12.13;;;9.82;;
47053;SDS011;32811;52.382;5.270;2024-02-28T13:31:02;13.75;;;9.95;;
47053;SDS011;32811;52.382;5.270;2024-02-28T13:33:32;16.08;;;9.50;;
47053;SDS011;32811;52.382;5.270;2024-02-28T13:35:59;10.70;;;9.23;;
47053;SDS011;32811;52.382;5.270;2024-02-28T13:38:25;13.45;;;9.38;;
47053;SDS011;32811;52.382;5.270;2024-02-28T13:40:52;13.77;;;10.10;;
47053;SDS011;32811;52.382;5.270;2024-02-28T13:43:19;11.85;;;10.20;;
47053;SDS011;32811;52.382;5.270;2024-02-28T13:45:46;12.80;;;10.35;;
47053;SDS011;32811;52.382;5.270;2024-02-28T13:48:15;11.38;;;9.75;;
47053;SDS011;32811;52.382;5.270;2024-02-28T13:50:47;14.02;;;9.63;;
47053;SDS011;32811;52.382;5.270;2024-02-28T13:53:15;14.85;;;10.52;;
47053;SDS011;32811;52.382;5.270;2024-02-28T13:55:42;16.73;;;10.65;;
47053;SDS011;32811;52.382;5.270;2024-02-28T13:58:10;19.95;;;11.25;;
47053;SDS011;32811;52.382;5.270;2024-02-28T14:00:38;13.68;;;9.48;;
47053;SDS011;32811;52.382;5.270;2024-02-28T14:03:05;14.15;;;11.52;;
47053;SDS011;32811;52.382;5.270;2024-02-28T14:05:33;12.52;;;9.40;;
47053;SDS011;32811;52.382;5.270;2024-02-28T14:07:59;13.48;;;11.25;;
47053;SDS011;32811;52.382;5.270;2024-02-28T14:10:26;13.85;;;11.05;;
47053;SDS011;32811;52.382;5.270;2024-02-28T14:12:53;13.05;;;10.52;;
47053;SDS011;32811;52.382;5.270;2024-02-28T14:15:20;20.08;;;11.38;;
47053;SDS011;32811;52.382;5.270;2024-02-28T14:17:47;14.88;;;11.02;;
47053;SDS011;32811;52.382;5.270;2024-02-28T14:20:13;13.52;;;11.35;;
47053;SDS011;32811;52.382;5.270;2024-02-28T14:22:40;14.10;;;11.40;;
47053;SDS011;32811;52.382;5.270;2024-02-28T14:25:16;15.32;;;11.73;;
47053;SDS011;32811;52.382;5.270;2024-02-28T14:27:46;15.73;;;11.63;;
47053;SDS011;32811;52.382;5.270;2024-02-28T14:30:14;15.75;;;12.25;;